sensor_id;sensor_type;location;lat;lon;timestamp;temperature;humidity
16970;DHT22;8601;48.718;8.992;2023-04-24T00:02:00;10.60;99.90
16970;DHT22;8601;48.718;8.992;2023-04-24T00:04:27;10.60;99.90
16970;DHT22;8601;48.718;8.992;2023-04-24T00:06:54;10.60;99.90
16970;DHT22;8601;48.718;8.992;2023-04-24T00:09:22;10.50;99.90
16970;DHT22;8601;48.718;8.992;2023-04-24T00:11:49;10.60;99.90
16970;DHT22;8601;48.718;8.992;2023-04-24T00:14:16;10.60;99.90
16970;DHT22;8601;48.718;8.992;2023-04-24T00:16:43;10.60;99.90
16970;DHT22;8601;48.718;8.992;2023-04-24T00:19:11;10.60;99.90
16970;DHT22;8601;48.718;8.992;2023-04-24T00:21:38;10.50;99.90
16970;DHT22;8601;48.718;8.992;2023-04-24T00:24:05;10.50;99.90
16970;DHT22;8601;48.718;8.992;2023-04-24T00:26:34;10.50;99.90
16970;DHT22;8601;48.718;8.992;2023-04-24T00:29:01;10.60;99.90
16970;DHT22;8601;48.718;8.992;2023-04-24T00:31:28;10.60;99.90
16970;DHT22;8601;48.718;8.992;2023-04-24T00:33:55;10.70;99.90
16970;DHT22;8601;48.718;8.992;2023-04-24T00:36:24;10.60;99.90
16970;DHT22;8601;48.718;8.992;2023-04-24T00:38:52;10.70;99.90
16970;DHT22;8601;48.718;8.992;2023-04-24T00:41:19;10.70;99.90
16970;DHT22;8601;48.718;8.992;2023-04-24T00:43:47;10.60;99.90
16970;DHT22;8601;48.718;8.992;2023-04-24T00:46:14;10.70;99.90
16970;DHT22;8601;48.718;8.992;2023-04-24T00:48:43;10.70;99.90
16970;DHT22;8601;48.718;8.992;2023-04-24T00:51:10;10.70;99.90
16970;DHT22;8601;48.718;8.992;2023-04-24T00:53:38;10.70;99.90
16970;DHT22;8601;48.718;8.992;2023-04-24T00:56:05;10.70;99.90
16970;DHT22;8601;48.718;8.992;2023-04-24T00:58:32;10.70;99.90
16970;DHT22;8601;48.718;8.992;2023-04-24T01:01:00;10.80;99.90
16970;DHT22;8601;48.718;8.992;2023-04-24T01:03:29;10.70;99.90
16970;DHT22;8601;48.718;8.992;2023-04-24T01:05:57;10.70;99.90
16970;DHT22;8601;48.718;8.992;2023-04-24T01:08:26;10.70;99.90
16970;DHT22;8601;48.718;8.992;2023-04-24T01:10:55;10.70;99.90
16970;DHT22;8601;48.718;8.992;2023-04-24T01:13:23;10.70;99.90
16970;DHT22;8601;48.718;8.992;2023-04-24T01:15:50;10.70;99.90
16970;DHT22;8601;48.718;8.992;2023-04-24T01:18:17;10.70;99.90
16970;DHT22;8601;48.718;8.992;2023-04-24T01:20:45;10.70;99.90
16970;DHT22;8601;48.718;8.992;2023-04-24T01:23:14;10.60;99.90
16970;DHT22;8601;48.718;8.992;2023-04-24T01:25:41;10.60;99.90
16970;DHT22;8601;48.718;8.992;2023-04-24T01:28:08;10.50;99.90
16970;DHT22;8601;48.718;8.992;2023-04-24T01:30:35;10.50;99.90
16970;DHT22;8601;48.718;8.992;2023-04-24T01:33:03;10.50;99.90
16970;DHT22;8601;48.718;8.992;2023-04-24T01:35:31;10.50;99.90
16970;DHT22;8601;48.718;8.992;2023-04-24T01:37:58;10.40;99.90
16970;DHT22;8601;48.718;8.992;2023-04-24T01:40:26;10.50;99.90
16970;DHT22;8601;48.718;8.992;2023-04-24T01:42:53;10.50;99.90
16970;DHT22;8601;48.718;8.992;2023-04-24T01:45:20;10.50;99.90
16970;DHT22;8601;48.718;8.992;2023-04-24T01:47:47;10.40;99.90
16970;DHT22;8601;48.718;8.992;2023-04-24T01:50:16;10.40;99.90
16970;DHT22;8601;48.718;8.992;2023-04-24T01:52:43;10.40;99.90
16970;DHT22;8601;48.718;8.992;2023-04-24T01:55:10;10.40;99.90
16970;DHT22;8601;48.718;8.992;2023-04-24T01:57:38;10.40;99.90
16970;DHT22;8601;48.718;8.992;2023-04-24T02:00:07;10.30;99.90
16970;DHT22;8601;48.718;8.992;2023-04-24T02:02:35;10.30;99.90
16970;DHT22;8601;48.718;8.992;2023-04-24T02:05:02;10.30;99.90
16970;DHT22;8601;48.718;8.992;2023-04-24T02:07:29;10.30;99.90
16970;DHT22;8601;48.718;8.992;2023-04-24T02:09:56;10.30;99.90
16970;DHT22;8601;48.718;8.992;2023-04-24T02:12:24;10.30;99.90
16970;DHT22;8601;48.718;8.992;2023-04-24T02:14:52;10.20;99.90
16970;DHT22;8601;48.718;8.992;2023-04-24T02:17:19;10.20;99.90
16970;DHT22;8601;48.718;8.992;2023-04-24T02:19:46;10.20;99.90
16970;DHT22;8601;48.718;8.992;2023-04-24T02:22:13;10.30;99.90
16970;DHT22;8601;48.718;8.992;2023-04-24T02:24:40;10.30;99.90
16970;DHT22;8601;48.718;8.992;2023-04-24T02:27:06;10.30;99.90
16970;DHT22;8601;48.718;8.992;2023-04-24T02:29:34;10.30;99.90
16970;DHT22;8601;48.718;8.992;2023-04-24T02:32:02;10.30;99.90
16970;DHT22;8601;48.718;8.992;2023-04-24T02:34:29;10.30;99.90
16970;DHT22;8601;48.718;8.992;2023-04-24T02:36:56;10.20;99.90
16970;DHT22;8601;48.718;8.992;2023-04-24T02:39:23;10.20;99.90
16970;DHT22;8601;48.718;8.992;2023-04-24T02:41:49;10.20;99.90
16970;DHT22;8601;48.718;8.992;2023-04-24T02:44:16;10.20;99.90
16970;DHT22;8601;48.718;8.992;2023-04-24T02:46:43;10.10;99.90
16970;DHT22;8601;48.718;8.992;2023-04-24T02:49:12;10.10;99.90
16970;DHT22;8601;48.718;8.992;2023-04-24T02:51:39;10.10;99.90
16970;DHT22;8601;48.718;8.992;2023-04-24T02:54:12;10.10;99.90
16970;DHT22;8601;48.718;8.992;2023-04-24T02:56:39;10.10;99.90
16970;DHT22;8601;48.718;8.992;2023-04-24T02:59:06;10.20;99.90
16970;DHT22;8601;48.718;8.992;2023-04-24T03:01:33;10.10;99.90
16970;DHT22;8601;48.718;8.992;2023-04-24T03:04:00;10.20;99.90
16970;DHT22;8601;48.718;8.992;2023-04-24T03:06:28;10.10;99.90
16970;DHT22;8601;48.718;8.992;2023-04-24T03:08:57;10.00;99.90
16970;DHT22;8601;48.718;8.992;2023-04-24T03:11:24;10.00;99.90
16970;DHT22;8601;48.718;8.992;2023-04-24T03:13:51;10.00;99.90
16970;DHT22;8601;48.718;8.992;2023-04-24T03:16:18;10.00;99.90
16970;DHT22;8601;48.718;8.992;2023-04-24T03:18:45;10.00;99.90
16970;DHT22;8601;48.718;8.992;2023-04-24T03:21:12;10.00;99.90
16970;DHT22;8601;48.718;8.992;2023-04-24T03:23:40;10.00;99.90
16970;DHT22;8601;48.718;8.992;2023-04-24T03:26:07;10.00;99.90
16970;DHT22;8601;48.718;8.992;2023-04-24T03:28:34;10.00;99.90
16970;DHT22;8601;48.718;8.992;2023-04-24T03:31:02;10.00;99.90
16970;DHT22;8601;48.718;8.992;2023-04-24T03:33:29;9.90;99.90
16970;DHT22;8601;48.718;8.992;2023-04-24T03:35:56;9.90;99.90
16970;DHT22;8601;48.718;8.992;2023-04-24T03:38:25;9.90;99.90
16970;DHT22;8601;48.718;8.992;2023-04-24T03:40:53;9.90;99.90
16970;DHT22;8601;48.718;8.992;2023-04-24T03:43:20;9.90;99.90
16970;DHT22;8601;48.718;8.992;2023-04-24T03:45:47;9.90;99.90
16970;DHT22;8601;48.718;8.992;2023-04-24T03:48:14;9.80;99.90
16970;DHT22;8601;48.718;8.992;2023-04-24T03:50:41;9.80;99.90
16970;DHT22;8601;48.718;8.992;2023-04-24T03:53:08;9.80;99.90
16970;DHT22;8601;48.718;8.992;2023-04-24T03:55:35;9.80;99.90
16970;DHT22;8601;48.718;8.992;2023-04-24T03:58:03;9.80;99.90
16970;DHT22;8601;48.718;8.992;2023-04-24T04:00:31;9.80;99.90
16970;DHT22;8601;48.718;8.992;2023-04-24T04:02:58;9.80;99.90
16970;DHT22;8601;48.718;8.992;2023-04-24T04:05:25;9.70;99.90
16970;DHT22;8601;48.718;8.992;2023-04-24T04:07:52;9.70;99.90
16970;DHT22;8601;48.718;8.992;2023-04-24T04:10:19;9.80;99.90
16970;DHT22;8601;48.718;8.992;2023-04-24T04:12:46;9.80;99.90
16970;DHT22;8601;48.718;8.992;2023-04-24T04:15:15;9.80;99.90
16970;DHT22;8601;48.718;8.992;2023-04-24T04:17:42;9.80;99.90
16970;DHT22;8601;48.718;8.992;2023-04-24T04:20:09;9.80;99.90
16970;DHT22;8601;48.718;8.992;2023-04-24T04:22:37;9.80;99.90
16970;DHT22;8601;48.718;8.992;2023-04-24T04:25:04;9.40;99.90
16970;DHT22;8601;48.718;8.992;2023-04-24T04:27:32;9.10;99.90
16970;DHT22;8601;48.718;8.992;2023-04-24T04:29:59;9.00;99.90
16970;DHT22;8601;48.718;8.992;2023-04-24T04:32:28;8.80;99.90
16970;DHT22;8601;48.718;8.992;2023-04-24T04:34:55;8.80;99.90
16970;DHT22;8601;48.718;8.992;2023-04-24T04:37:24;8.70;99.90
16970;DHT22;8601;48.718;8.992;2023-04-24T04:39:51;8.70;99.90
16970;DHT22;8601;48.718;8.992;2023-04-24T04:42:19;8.70;99.90
16970;DHT22;8601;48.718;8.992;2023-04-24T04:44:45;8.60;99.90
16970;DHT22;8601;48.718;8.992;2023-04-24T04:47:15;8.60;99.90
16970;DHT22;8601;48.718;8.992;2023-04-24T04:49:44;8.60;99.90
16970;DHT22;8601;48.718;8.992;2023-04-24T04:52:10;8.70;99.90
16970;DHT22;8601;48.718;8.992;2023-04-24T04:54:37;8.60;99.90
16970;DHT22;8601;48.718;8.992;2023-04-24T04:57:05;8.60;99.90
16970;DHT22;8601;48.718;8.992;2023-04-24T04:59:32;8.60;99.90
16970;DHT22;8601;48.718;8.992;2023-04-24T05:01:58;8.60;99.90
16970;DHT22;8601;48.718;8.992;2023-04-24T05:04:25;8.60;99.90
16970;DHT22;8601;48.718;8.992;2023-04-24T05:06:54;8.60;99.90
16970;DHT22;8601;48.718;8.992;2023-04-24T05:09:21;8.60;99.90
16970;DHT22;8601;48.718;8.992;2023-04-24T05:11:48;8.60;99.90
16970;DHT22;8601;48.718;8.992;2023-04-24T05:14:15;8.60;99.90
16970;DHT22;8601;48.718;8.992;2023-04-24T05:16:43;8.60;99.90
16970;DHT22;8601;48.718;8.992;2023-04-24T05:19:10;8.60;99.90
16970;DHT22;8601;48.718;8.992;2023-04-24T05:21:37;8.60;99.90
16970;DHT22;8601;48.718;8.992;2023-04-24T05:24:06;8.60;99.90
16970;DHT22;8601;48.718;8.992;2023-04-24T05:26:33;8.70;99.90
16970;DHT22;8601;48.718;8.992;2023-04-24T05:29:01;8.70;99.90
16970;DHT22;8601;48.718;8.992;2023-04-24T05:31:27;8.70;99.90
16970;DHT22;8601;48.718;8.992;2023-04-24T05:33:55;8.70;99.90
16970;DHT22;8601;48.718;8.992;2023-04-24T05:36:22;8.70;99.90
16970;DHT22;8601;48.718;8.992;2023-04-24T05:38:48;8.70;99.90
16970;DHT22;8601;48.718;8.992;2023-04-24T05:41:17;8.70;99.90
16970;DHT22;8601;48.718;8.992;2023-04-24T05:43:44;8.60;99.90
16970;DHT22;8601;48.718;8.992;2023-04-24T05:46:11;8.60;99.90
16970;DHT22;8601;48.718;8.992;2023-04-24T05:48:39;8.70;99.90
16970;DHT22;8601;48.718;8.992;2023-04-24T05:51:05;8.60;99.90
16970;DHT22;8601;48.718;8.992;2023-04-24T05:53:32;8.60;99.90
16970;DHT22;8601;48.718;8.992;2023-04-24T05:56:06;8.60;99.90
16970;DHT22;8601;48.718;8.992;2023-04-24T05:58:35;8.50;99.90
16970;DHT22;8601;48.718;8.992;2023-04-24T06:01:03;8.60;99.90
16970;DHT22;8601;48.718;8.992;2023-04-24T06:03:30;9.70;99.90
16970;DHT22;8601;48.718;8.992;2023-04-24T06:05:58;9.50;99.90
16970;DHT22;8601;48.718;8.992;2023-04-24T06:08:25;9.30;99.90
16970;DHT22;8601;48.718;8.992;2023-04-24T06:10:52;9.10;99.90
16970;DHT22;8601;48.718;8.992;2023-04-24T06:13:19;8.90;99.90
16970;DHT22;8601;48.718;8.992;2023-04-24T06:15:47;8.90;99.90
16970;DHT22;8601;48.718;8.992;2023-04-24T06:18:14;8.90;99.90
16970;DHT22;8601;48.718;8.992;2023-04-24T06:20:41;9.00;99.90
16970;DHT22;8601;48.718;8.992;2023-04-24T06:23:08;9.00;99.90
16970;DHT22;8601;48.718;8.992;2023-04-24T06:25:38;9.00;99.90
16970;DHT22;8601;48.718;8.992;2023-04-24T06:28:05;9.10;99.90
16970;DHT22;8601;48.718;8.992;2023-04-24T06:30:32;9.20;99.90
16970;DHT22;8601;48.718;8.992;2023-04-24T06:33:00;9.30;99.90
16970;DHT22;8601;48.718;8.992;2023-04-24T06:35:27;9.40;99.90
16970;DHT22;8601;48.718;8.992;2023-04-24T06:37:54;9.40;99.90
16970;DHT22;8601;48.718;8.992;2023-04-24T06:40:22;9.50;99.90
16970;DHT22;8601;48.718;8.992;2023-04-24T06:42:48;9.50;99.90
16970;DHT22;8601;48.718;8.992;2023-04-24T06:45:15;9.60;99.90
16970;DHT22;8601;48.718;8.992;2023-04-24T06:47:42;9.70;99.90
16970;DHT22;8601;48.718;8.992;2023-04-24T06:50:11;9.80;99.90
16970;DHT22;8601;48.718;8.992;2023-04-24T06:52:38;9.90;99.90
16970;DHT22;8601;48.718;8.992;2023-04-24T06:55:06;10.10;99.90
16970;DHT22;8601;48.718;8.992;2023-04-24T06:57:33;10.10;99.90
16970;DHT22;8601;48.718;8.992;2023-04-24T07:00:00;10.10;99.90
16970;DHT22;8601;48.718;8.992;2023-04-24T07:02:27;10.20;99.90
16970;DHT22;8601;48.718;8.992;2023-04-24T07:04:53;10.10;99.90
16970;DHT22;8601;48.718;8.992;2023-04-24T07:07:25;10.00;99.90
16970;DHT22;8601;48.718;8.992;2023-04-24T07:09:53;10.00;99.90
16970;DHT22;8601;48.718;8.992;2023-04-24T07:12:21;9.90;99.90
16970;DHT22;8601;48.718;8.992;2023-04-24T07:14:48;9.70;99.90
16970;DHT22;8601;48.718;8.992;2023-04-24T07:17:16;9.70;99.90
16970;DHT22;8601;48.718;8.992;2023-04-24T07:19:43;9.70;99.90
16970;DHT22;8601;48.718;8.992;2023-04-24T07:22:10;9.70;99.90
16970;DHT22;8601;48.718;8.992;2023-04-24T07:24:43;9.70;99.90
16970;DHT22;8601;48.718;8.992;2023-04-24T07:27:10;9.80;99.90
16970;DHT22;8601;48.718;8.992;2023-04-24T07:29:37;9.90;99.90
16970;DHT22;8601;48.718;8.992;2023-04-24T07:32:05;10.10;99.90
16970;DHT22;8601;48.718;8.992;2023-04-24T07:34:33;10.30;99.90
16970;DHT22;8601;48.718;8.992;2023-04-24T07:37:00;10.30;99.90
16970;DHT22;8601;48.718;8.992;2023-04-24T07:39:27;10.30;99.90
16970;DHT22;8601;48.718;8.992;2023-04-24T07:41:56;10.30;99.90
16970;DHT22;8601;48.718;8.992;2023-04-24T07:44:24;10.10;99.90
16970;DHT22;8601;48.718;8.992;2023-04-24T07:46:51;10.10;99.90
16970;DHT22;8601;48.718;8.992;2023-04-24T07:49:18;10.10;99.90
16970;DHT22;8601;48.718;8.992;2023-04-24T07:51:45;10.10;99.90
16970;DHT22;8601;48.718;8.992;2023-04-24T07:54:12;10.00;99.90
16970;DHT22;8601;48.718;8.992;2023-04-24T07:56:39;10.00;99.90
16970;DHT22;8601;48.718;8.992;2023-04-24T07:59:10;10.00;99.90
16970;DHT22;8601;48.718;8.992;2023-04-24T08:01:36;10.00;99.90
16970;DHT22;8601;48.718;8.992;2023-04-24T08:04:03;9.90;99.90
16970;DHT22;8601;48.718;8.992;2023-04-24T08:06:31;9.90;99.90
16970;DHT22;8601;48.718;8.992;2023-04-24T08:08:58;10.00;99.90
16970;DHT22;8601;48.718;8.992;2023-04-24T08:11:25;10.10;99.90
16970;DHT22;8601;48.718;8.992;2023-04-24T08:13:52;10.10;99.90
16970;DHT22;8601;48.718;8.992;2023-04-24T08:16:21;10.10;99.90
16970;DHT22;8601;48.718;8.992;2023-04-24T08:18:49;10.10;99.90
16970;DHT22;8601;48.718;8.992;2023-04-24T08:21:16;10.20;99.80
16970;DHT22;8601;48.718;8.992;2023-04-24T08:23:44;10.20;98.10
16970;DHT22;8601;48.718;8.992;2023-04-24T08:26:11;10.40;99.10
16970;DHT22;8601;48.718;8.992;2023-04-24T08:28:38;10.60;99.70
16970;DHT22;8601;48.718;8.992;2023-04-24T08:31:05;10.70;99.10
16970;DHT22;8601;48.718;8.992;2023-04-24T08:33:34;10.70;98.00
16970;DHT22;8601;48.718;8.992;2023-04-24T08:36:02;10.60;97.30
16970;DHT22;8601;48.718;8.992;2023-04-24T08:38:29;10.40;96.80
16970;DHT22;8601;48.718;8.992;2023-04-24T08:40:59;10.30;97.90
16970;DHT22;8601;48.718;8.992;2023-04-24T08:43:27;10.40;97.60
16970;DHT22;8601;48.718;8.992;2023-04-24T08:45:56;10.20;96.70
16970;DHT22;8601;48.718;8.992;2023-04-24T08:48:23;10.10;97.70
16970;DHT22;8601;48.718;8.992;2023-04-24T08:50:51;10.20;99.40
16970;DHT22;8601;48.718;8.992;2023-04-24T08:53:18;10.20;99.00
16970;DHT22;8601;48.718;8.992;2023-04-24T08:55:47;10.10;97.60
16970;DHT22;8601;48.718;8.992;2023-04-24T08:58:16;10.10;98.50
16970;DHT22;8601;48.718;8.992;2023-04-24T09:00:43;10.10;99.00
16970;DHT22;8601;48.718;8.992;2023-04-24T09:03:17;10.10;97.50
16970;DHT22;8601;48.718;8.992;2023-04-24T09:05:47;10.10;96.70
16970;DHT22;8601;48.718;8.992;2023-04-24T09:08:18;10.00;97.00
16970;DHT22;8601;48.718;8.992;2023-04-24T09:10:46;10.10;96.60
16970;DHT22;8601;48.718;8.992;2023-04-24T09:13:14;10.00;95.90
16970;DHT22;8601;48.718;8.992;2023-04-24T09:15:42;10.10;96.30
16970;DHT22;8601;48.718;8.992;2023-04-24T09:18:10;10.10;96.30
16970;DHT22;8601;48.718;8.992;2023-04-24T09:20:58;10.40;94.70
16970;DHT22;8601;48.718;8.992;2023-04-24T09:23:29;10.80;93.60
16970;DHT22;8601;48.718;8.992;2023-04-24T09:25:57;11.20;90.60
16970;DHT22;8601;48.718;8.992;2023-04-24T09:28:27;11.30;89.30
16970;DHT22;8601;48.718;8.992;2023-04-24T09:31:03;11.50;86.20
16970;DHT22;8601;48.718;8.992;2023-04-24T09:33:30;11.70;88.10
16970;DHT22;8601;48.718;8.992;2023-04-24T09:35:56;11.40;87.50
16970;DHT22;8601;48.718;8.992;2023-04-24T09:38:32;11.10;88.00
16970;DHT22;8601;48.718;8.992;2023-04-24T09:41:00;11.30;88.00
16970;DHT22;8601;48.718;8.992;2023-04-24T09:43:28;11.40;87.50
16970;DHT22;8601;48.718;8.992;2023-04-24T09:45:56;11.60;86.20
16970;DHT22;8601;48.718;8.992;2023-04-24T09:48:36;11.50;86.80
16970;DHT22;8601;48.718;8.992;2023-04-24T09:51:05;11.20;84.10
16970;DHT22;8601;48.718;8.992;2023-04-24T09:53:34;11.20;86.20
16970;DHT22;8601;48.718;8.992;2023-04-24T09:56:07;11.60;86.30
16970;DHT22;8601;48.718;8.992;2023-04-24T09:58:36;11.50;88.20
16970;DHT22;8601;48.718;8.992;2023-04-24T10:01:03;11.60;85.20
16970;DHT22;8601;48.718;8.992;2023-04-24T10:03:31;11.90;82.40
16970;DHT22;8601;48.718;8.992;2023-04-24T10:05:59;12.10;83.00
16970;DHT22;8601;48.718;8.992;2023-04-24T10:08:26;12.20;81.30
16970;DHT22;8601;48.718;8.992;2023-04-24T10:11:01;12.00;79.90
16970;DHT22;8601;48.718;8.992;2023-04-24T10:13:28;12.20;80.30
16970;DHT22;8601;48.718;8.992;2023-04-24T10:15:56;12.70;83.40
16970;DHT22;8601;48.718;8.992;2023-04-24T10:18:26;13.00;78.70
16970;DHT22;8601;48.718;8.992;2023-04-24T10:20:53;13.00;79.50
16970;DHT22;8601;48.718;8.992;2023-04-24T10:23:22;12.60;76.50
16970;DHT22;8601;48.718;8.992;2023-04-24T10:25:52;12.20;78.20
16970;DHT22;8601;48.718;8.992;2023-04-24T10:28:22;11.70;78.30
16970;DHT22;8601;48.718;8.992;2023-04-24T10:30:53;11.50;79.90
16970;DHT22;8601;48.718;8.992;2023-04-24T10:33:21;11.00;80.00
16970;DHT22;8601;48.718;8.992;2023-04-24T10:35:50;11.40;82.00
16970;DHT22;8601;48.718;8.992;2023-04-24T10:38:22;11.70;82.00
16970;DHT22;8601;48.718;8.992;2023-04-24T10:40:51;11.70;81.80
16970;DHT22;8601;48.718;8.992;2023-04-24T10:43:18;11.50;81.50
16970;DHT22;8601;48.718;8.992;2023-04-24T10:48:54;11.50;83.10
16970;DHT22;8601;48.718;8.992;2023-04-24T10:51:22;11.20;82.40
16970;DHT22;8601;48.718;8.992;2023-04-24T10:53:50;10.90;82.30
16970;DHT22;8601;48.718;8.992;2023-04-24T10:56:17;10.80;84.50
16970;DHT22;8601;48.718;8.992;2023-04-24T10:58:49;10.80;83.40
16970;DHT22;8601;48.718;8.992;2023-04-24T11:01:24;10.60;85.10
16970;DHT22;8601;48.718;8.992;2023-04-24T11:03:56;10.70;86.50
16970;DHT22;8601;48.718;8.992;2023-04-24T11:06:32;10.50;86.70
16970;DHT22;8601;48.718;8.992;2023-04-24T11:09:03;10.50;88.50
16970;DHT22;8601;48.718;8.992;2023-04-24T11:11:31;10.70;85.40
16970;DHT22;8601;48.718;8.992;2023-04-24T11:14:04;10.70;86.20
16970;DHT22;8601;48.718;8.992;2023-04-24T11:16:33;10.80;83.70
16970;DHT22;8601;48.718;8.992;2023-04-24T11:19:05;10.80;82.10
16970;DHT22;8601;48.718;8.992;2023-04-24T11:21:39;10.90;85.30
16970;DHT22;8601;48.718;8.992;2023-04-24T11:24:33;11.00;83.30
16970;DHT22;8601;48.718;8.992;2023-04-24T11:27:12;10.90;85.10
16970;DHT22;8601;48.718;8.992;2023-04-24T11:29:41;10.80;86.50
16970;DHT22;8601;48.718;8.992;2023-04-24T11:32:16;10.50;86.20
16970;DHT22;8601;48.718;8.992;2023-04-24T11:34:47;10.30;87.70
16970;DHT22;8601;48.718;8.992;2023-04-24T11:37:15;10.30;90.00
16970;DHT22;8601;48.718;8.992;2023-04-24T11:39:44;10.30;90.50
16970;DHT22;8601;48.718;8.992;2023-04-24T11:42:12;10.50;90.90
16970;DHT22;8601;48.718;8.992;2023-04-24T11:44:41;10.60;90.00
16970;DHT22;8601;48.718;8.992;2023-04-24T11:47:09;10.70;89.90
16970;DHT22;8601;48.718;8.992;2023-04-24T11:49:36;10.90;87.10
16970;DHT22;8601;48.718;8.992;2023-04-24T11:52:05;11.00;86.50
16970;DHT22;8601;48.718;8.992;2023-04-24T11:54:32;10.90;84.30
16970;DHT22;8601;48.718;8.992;2023-04-24T11:56:59;10.70;83.50
16970;DHT22;8601;48.718;8.992;2023-04-24T11:59:26;10.70;84.80
16970;DHT22;8601;48.718;8.992;2023-04-24T12:01:53;10.50;87.60
16970;DHT22;8601;48.718;8.992;2023-04-24T12:04:20;10.60;88.90
16970;DHT22;8601;48.718;8.992;2023-04-24T12:06:59;10.40;86.60
16970;DHT22;8601;48.718;8.992;2023-04-24T12:09:28;10.30;86.90
16970;DHT22;8601;48.718;8.992;2023-04-24T12:11:55;10.30;85.70
16970;DHT22;8601;48.718;8.992;2023-04-24T12:14:22;10.20;84.10
16970;DHT22;8601;48.718;8.992;2023-04-24T12:16:50;10.40;85.00
16970;DHT22;8601;48.718;8.992;2023-04-24T12:19:20;10.40;84.70
16970;DHT22;8601;48.718;8.992;2023-04-24T12:21:59;10.50;84.40
16970;DHT22;8601;48.718;8.992;2023-04-24T12:24:28;10.60;83.60
16970;DHT22;8601;48.718;8.992;2023-04-24T12:26:56;10.60;83.50
16970;DHT22;8601;48.718;8.992;2023-04-24T12:29:23;10.60;85.30
16970;DHT22;8601;48.718;8.992;2023-04-24T12:31:51;10.60;85.10
16970;DHT22;8601;48.718;8.992;2023-04-24T12:34:18;10.40;85.50
16970;DHT22;8601;48.718;8.992;2023-04-24T12:36:46;10.30;86.90
16970;DHT22;8601;48.718;8.992;2023-04-24T12:39:18;10.30;89.60
16970;DHT22;8601;48.718;8.992;2023-04-24T12:41:56;10.10;89.50
16970;DHT22;8601;48.718;8.992;2023-04-24T12:44:30;10.10;89.50
16970;DHT22;8601;48.718;8.992;2023-04-24T12:47:00;10.00;90.20
16970;DHT22;8601;48.718;8.992;2023-04-24T12:49:27;10.00;90.50
16970;DHT22;8601;48.718;8.992;2023-04-24T12:51:54;9.90;90.40
16970;DHT22;8601;48.718;8.992;2023-04-24T12:54:21;10.00;90.60
16970;DHT22;8601;48.718;8.992;2023-04-24T12:56:48;10.00;90.30
16970;DHT22;8601;48.718;8.992;2023-04-24T12:59:16;9.90;91.80
16970;DHT22;8601;48.718;8.992;2023-04-24T13:01:44;9.90;93.60
16970;DHT22;8601;48.718;8.992;2023-04-24T13:04:11;9.90;94.30
16970;DHT22;8601;48.718;8.992;2023-04-24T13:06:37;9.90;93.60
16970;DHT22;8601;48.718;8.992;2023-04-24T13:09:05;10.00;93.60
16970;DHT22;8601;48.718;8.992;2023-04-24T13:11:32;10.10;94.20
16970;DHT22;8601;48.718;8.992;2023-04-24T13:13:58;10.30;93.20
16970;DHT22;8601;48.718;8.992;2023-04-24T13:16:27;10.40;92.20
16970;DHT22;8601;48.718;8.992;2023-04-24T13:18:53;10.50;92.50
16970;DHT22;8601;48.718;8.992;2023-04-24T13:21:20;10.60;92.00
16970;DHT22;8601;48.718;8.992;2023-04-24T13:23:47;10.40;89.90
16970;DHT22;8601;48.718;8.992;2023-04-24T13:26:14;10.30;90.20
16970;DHT22;8601;48.718;8.992;2023-04-24T13:28:41;10.20;90.80
16970;DHT22;8601;48.718;8.992;2023-04-24T13:31:09;10.10;90.80
16970;DHT22;8601;48.718;8.992;2023-04-24T13:33:37;10.00;90.60
16970;DHT22;8601;48.718;8.992;2023-04-24T13:36:04;10.00;90.80
16970;DHT22;8601;48.718;8.992;2023-04-24T13:38:34;9.90;92.20
16970;DHT22;8601;48.718;8.992;2023-04-24T13:41:01;9.70;92.60
16970;DHT22;8601;48.718;8.992;2023-04-24T13:43:28;9.80;94.20
16970;DHT22;8601;48.718;8.992;2023-04-24T13:45:55;10.10;94.00
16970;DHT22;8601;48.718;8.992;2023-04-24T13:48:22;10.30;92.80
16970;DHT22;8601;48.718;8.992;2023-04-24T13:50:50;10.70;93.40
16970;DHT22;8601;48.718;8.992;2023-04-24T13:53:18;10.70;91.20
16970;DHT22;8601;48.718;8.992;2023-04-24T13:55:45;10.80;91.70
16970;DHT22;8601;48.718;8.992;2023-04-24T13:58:12;10.80;91.40
16970;DHT22;8601;48.718;8.992;2023-04-24T14:00:38;10.70;91.70
16970;DHT22;8601;48.718;8.992;2023-04-24T14:03:05;10.60;92.10
16970;DHT22;8601;48.718;8.992;2023-04-24T14:05:32;10.60;93.10
16970;DHT22;8601;48.718;8.992;2023-04-24T14:08:00;10.60;93.50
16970;DHT22;8601;48.718;8.992;2023-04-24T14:10:27;10.30;94.70
16970;DHT22;8601;48.718;8.992;2023-04-24T14:12:54;10.10;96.60
16970;DHT22;8601;48.718;8.992;2023-04-24T14:15:21;9.80;97.80
16970;DHT22;8601;48.718;8.992;2023-04-24T14:17:48;9.40;99.10
16970;DHT22;8601;48.718;8.992;2023-04-24T14:20:15;9.40;99.90
16970;DHT22;8601;48.718;8.992;2023-04-24T14:22:42;9.40;99.90
16970;DHT22;8601;48.718;8.992;2023-04-24T14:25:10;9.50;99.90
16970;DHT22;8601;48.718;8.992;2023-04-24T14:27:38;9.80;99.90
16970;DHT22;8601;48.718;8.992;2023-04-24T14:30:06;10.30;99.90
16970;DHT22;8601;48.718;8.992;2023-04-24T14:32:34;10.20;99.90
16970;DHT22;8601;48.718;8.992;2023-04-24T14:35:01;10.20;99.90
16970;DHT22;8601;48.718;8.992;2023-04-24T14:37:27;10.00;99.50
16970;DHT22;8601;48.718;8.992;2023-04-24T14:39:54;10.10;99.70
16970;DHT22;8601;48.718;8.992;2023-04-24T14:42:23;10.10;99.60
16970;DHT22;8601;48.718;8.992;2023-04-24T14:44:51;10.30;99.90
16970;DHT22;8601;48.718;8.992;2023-04-24T14:47:17;10.80;99.90
16970;DHT22;8601;48.718;8.992;2023-04-24T14:49:47;11.30;99.40
16970;DHT22;8601;48.718;8.992;2023-04-24T14:52:14;11.30;99.00
16970;DHT22;8601;48.718;8.992;2023-04-24T14:54:41;11.00;96.90
16970;DHT22;8601;48.718;8.992;2023-04-24T14:57:08;10.90;96.50
16970;DHT22;8601;48.718;8.992;2023-04-24T14:59:36;10.60;96.40
16970;DHT22;8601;48.718;8.992;2023-04-24T15:02:03;10.60;96.80
16970;DHT22;8601;48.718;8.992;2023-04-24T15:04:30;10.40;96.70
16970;DHT22;8601;48.718;8.992;2023-04-24T15:06:57;10.50;96.80
16970;DHT22;8601;48.718;8.992;2023-04-24T15:09:25;10.30;96.20
16970;DHT22;8601;48.718;8.992;2023-04-24T15:11:52;10.30;96.90
16970;DHT22;8601;48.718;8.992;2023-04-24T15:14:20;10.30;95.80
16970;DHT22;8601;48.718;8.992;2023-04-24T15:16:48;10.20;96.00
16970;DHT22;8601;48.718;8.992;2023-04-24T15:19:15;10.30;97.10
16970;DHT22;8601;48.718;8.992;2023-04-24T15:21:42;10.30;96.90
16970;DHT22;8601;48.718;8.992;2023-04-24T15:24:09;10.20;98.90
16970;DHT22;8601;48.718;8.992;2023-04-24T15:26:37;9.90;99.90
16970;DHT22;8601;48.718;8.992;2023-04-24T15:29:04;9.80;99.90
16970;DHT22;8601;48.718;8.992;2023-04-24T15:31:31;9.80;99.90
16970;DHT22;8601;48.718;8.992;2023-04-24T15:33:59;9.60;99.80
16970;DHT22;8601;48.718;8.992;2023-04-24T15:36:26;9.70;99.90
16970;DHT22;8601;48.718;8.992;2023-04-24T15:38:54;9.80;99.90
16970;DHT22;8601;48.718;8.992;2023-04-24T15:41:21;9.90;99.90
16970;DHT22;8601;48.718;8.992;2023-04-24T15:43:48;9.90;99.90
16970;DHT22;8601;48.718;8.992;2023-04-24T15:46:15;10.00;99.90
16970;DHT22;8601;48.718;8.992;2023-04-24T15:48:42;10.10;99.90
16970;DHT22;8601;48.718;8.992;2023-04-24T15:51:11;10.10;99.90
16970;DHT22;8601;48.718;8.992;2023-04-24T15:53:38;10.20;99.70
16970;DHT22;8601;48.718;8.992;2023-04-24T15:56:05;10.30;98.60
16970;DHT22;8601;48.718;8.992;2023-04-24T15:58:32;10.60;99.10